Tunnel Hill, Illinois
Current Conditions -  °F | °C
As of 5:50 PM on Thursday 18 Dec 2014 (Local Time) from KMWA Reporting Station
Overcast Overcast  
Wind Chill: 31°   Ceiling: 6000
Heat Index: 36°   Visibility: 10mi
Dew Point: 30°   Wind: 6mph
Humidity: 81%   Direction: 40°NE
Pressure: 30.25"   Gusts: NA
Location:  37.52°N, 88.84°W
Report Text: KMWA 182350Z 04005KT 10SM BKN060 OVC070 02/M01 A3025
Loading
Personal Weather Stations






























Interactive Weather Map New forecast layout! Learn more

10-Day Weather Forecast

Advertisements
Track Severe Weather on mobile